sensor_id;sensor_type;location;lat;lon;timestamp;P1;durP1;ratioP1;P2;durP2;ratioP2
47760;SDS011;33524;55.434;38.520;2023-12-20T00:00:27;3.75;;;2.65;;
47760;SDS011;33524;55.434;38.520;2023-12-20T00:02:55;3.40;;;2.22;;
47760;SDS011;33524;55.434;38.520;2023-12-20T00:05:24;3.87;;;2.28;;
47760;SDS011;33524;55.434;38.520;2023-12-20T00:07:52;4.85;;;2.37;;
47760;SDS011;33524;55.434;38.520;2023-12-20T00:10:20;3.55;;;2.42;;
47760;SDS011;33524;55.434;38.520;2023-12-20T00:12:48;5.53;;;2.28;;
47760;SDS011;33524;55.434;38.520;2023-12-20T00:15:16;3.45;;;2.40;;
47760;SDS011;33524;55.434;38.520;2023-12-20T00:17:45;3.83;;;2.60;;
47760;SDS011;33524;55.434;38.520;2023-12-20T00:20:13;2.72;;;2.37;;
47760;SDS011;33524;55.434;38.520;2023-12-20T00:22:41;3.25;;;2.45;;
47760;SDS011;33524;55.434;38.520;2023-12-20T00:25:09;3.53;;;2.45;;
47760;SDS011;33524;55.434;38.520;2023-12-20T00:27:37;2.92;;;2.20;;
47760;SDS011;33524;55.434;38.520;2023-12-20T00:30:09;3.08;;;2.40;;
47760;SDS011;33524;55.434;38.520;2023-12-20T00:32:38;3.30;;;2.22;;
47760;SDS011;33524;55.434;38.520;2023-12-20T00:35:06;4.00;;;2.37;;
47760;SDS011;33524;55.434;38.520;2023-12-20T00:37:37;3.92;;;2.65;;
47760;SDS011;33524;55.434;38.520;2023-12-20T00:40:06;3.33;;;2.60;;
47760;SDS011;33524;55.434;38.520;2023-12-20T00:42:34;3.40;;;2.65;;
47760;SDS011;33524;55.434;38.520;2023-12-20T00:45:06;3.67;;;2.83;;
47760;SDS011;33524;55.434;38.520;2023-12-20T00:47:34;7.03;;;2.92;;
47760;SDS011;33524;55.434;38.520;2023-12-20T00:50:02;5.78;;;2.60;;
47760;SDS011;33524;55.434;38.520;2023-12-20T00:52:34;3.85;;;2.70;;
47760;SDS011;33524;55.434;38.520;2023-12-20T00:55:02;4.18;;;2.75;;
47760;SDS011;33524;55.434;38.520;2023-12-20T00:57:32;5.12;;;3.17;;
47760;SDS011;33524;55.434;38.520;2023-12-20T01:00:00;4.50;;;3.28;;
47760;SDS011;33524;55.434;38.520;2023-12-20T01:02:30;4.12;;;3.12;;
47760;SDS011;33524;55.434;38.520;2023-12-20T01:04:59;3.87;;;2.62;;
47760;SDS011;33524;55.434;38.520;2023-12-20T01:07:30;4.35;;;2.72;;
47760;SDS011;33524;55.434;38.520;2023-12-20T01:09:58;4.80;;;3.00;;
47760;SDS011;33524;55.434;38.520;2023-12-20T01:12:29;5.57;;;3.67;;
47760;SDS011;33524;55.434;38.520;2023-12-20T01:14:57;3.22;;;2.35;;
47760;SDS011;33524;55.434;38.520;2023-12-20T01:17:25;4.03;;;2.78;;
47760;SDS011;33524;55.434;38.520;2023-12-20T01:19:54;5.15;;;2.97;;
47760;SDS011;33524;55.434;38.520;2023-12-20T01:22:22;4.32;;;3.00;;
47760;SDS011;33524;55.434;38.520;2023-12-20T01:24:50;3.50;;;2.10;;
47760;SDS011;33524;55.434;38.520;2023-12-20T01:27:19;4.18;;;2.87;;
47760;SDS011;33524;55.434;38.520;2023-12-20T01:29:47;4.87;;;3.15;;
47760;SDS011;33524;55.434;38.520;2023-12-20T01:32:15;3.78;;;2.53;;
47760;SDS011;33524;55.434;38.520;2023-12-20T01:34:43;4.65;;;2.55;;
47760;SDS011;33524;55.434;38.520;2023-12-20T01:37:11;3.00;;;2.20;;
47760;SDS011;33524;55.434;38.520;2023-12-20T01:39:40;4.95;;;2.40;;
47760;SDS011;33524;55.434;38.520;2023-12-20T01:42:09;3.62;;;2.58;;
47760;SDS011;33524;55.434;38.520;2023-12-20T01:44:37;4.85;;;3.00;;
47760;SDS011;33524;55.434;38.520;2023-12-20T01:47:05;4.55;;;3.22;;
47760;SDS011;33524;55.434;38.520;2023-12-20T01:49:34;3.50;;;2.72;;
47760;SDS011;33524;55.434;38.520;2023-12-20T01:52:02;4.80;;;3.30;;
47760;SDS011;33524;55.434;38.520;2023-12-20T01:54:34;3.60;;;2.60;;
47760;SDS011;33524;55.434;38.520;2023-12-20T01:57:04;3.42;;;2.72;;
47760;SDS011;33524;55.434;38.520;2023-12-20T01:59:33;3.17;;;2.42;;
47760;SDS011;33524;55.434;38.520;2023-12-20T02:02:03;3.47;;;2.33;;
47760;SDS011;33524;55.434;38.520;2023-12-20T02:04:31;4.57;;;2.67;;
47760;SDS011;33524;55.434;38.520;2023-12-20T02:07:00;3.90;;;2.92;;
47760;SDS011;33524;55.434;38.520;2023-12-20T02:09:30;3.85;;;2.50;;
47760;SDS011;33524;55.434;38.520;2023-12-20T02:11:58;3.83;;;2.30;;
47760;SDS011;33524;55.434;38.520;2023-12-20T02:14:27;2.97;;;1.87;;
47760;SDS011;33524;55.434;38.520;2023-12-20T02:16:55;2.75;;;2.00;;
47760;SDS011;33524;55.434;38.520;2023-12-20T02:19:23;2.83;;;1.60;;
47760;SDS011;33524;55.434;38.520;2023-12-20T02:22:04;2.92;;;2.15;;
47760;SDS011;33524;55.434;38.520;2023-12-20T02:24:36;3.03;;;1.65;;
47760;SDS011;33524;55.434;38.520;2023-12-20T02:27:05;2.58;;;1.80;;
47760;SDS011;33524;55.434;38.520;2023-12-20T02:29:34;2.83;;;1.73;;
47760;SDS011;33524;55.434;38.520;2023-12-20T02:32:03;3.30;;;1.80;;
47760;SDS011;33524;55.434;38.520;2023-12-20T02:34:31;1.75;;;1.37;;
47760;SDS011;33524;55.434;38.520;2023-12-20T02:37:02;2.37;;;1.70;;
47760;SDS011;33524;55.434;38.520;2023-12-20T02:39:31;4.72;;;1.90;;
47760;SDS011;33524;55.434;38.520;2023-12-20T02:41:58;3.45;;;1.62;;
47760;SDS011;33524;55.434;38.520;2023-12-20T02:44:26;6.07;;;1.62;;
47760;SDS011;33524;55.434;38.520;2023-12-20T02:46:55;3.47;;;2.15;;
47760;SDS011;33524;55.434;38.520;2023-12-20T02:49:23;3.35;;;1.42;;
47760;SDS011;33524;55.434;38.520;2023-12-20T02:51:51;2.97;;;1.50;;
47760;SDS011;33524;55.434;38.520;2023-12-20T02:54:19;1.48;;;1.35;;
47760;SDS011;33524;55.434;38.520;2023-12-20T02:56:47;1.83;;;1.35;;
47760;SDS011;33524;55.434;38.520;2023-12-20T02:59:15;2.58;;;1.50;;
47760;SDS011;33524;55.434;38.520;2023-12-20T03:01:46;2.55;;;1.42;;
47760;SDS011;33524;55.434;38.520;2023-12-20T03:04:15;1.50;;;1.30;;
47760;SDS011;33524;55.434;38.520;2023-12-20T03:06:43;2.25;;;1.70;;
47760;SDS011;33524;55.434;38.520;2023-12-20T03:09:11;3.05;;;1.92;;
47760;SDS011;33524;55.434;38.520;2023-12-20T03:11:39;2.50;;;1.90;;
47760;SDS011;33524;55.434;38.520;2023-12-20T03:14:07;2.42;;;1.98;;
47760;SDS011;33524;55.434;38.520;2023-12-20T03:16:36;3.53;;;2.35;;
47760;SDS011;33524;55.434;38.520;2023-12-20T03:19:04;4.32;;;2.92;;
47760;SDS011;33524;55.434;38.520;2023-12-20T03:21:32;4.60;;;2.92;;
47760;SDS011;33524;55.434;38.520;2023-12-20T03:24:00;5.50;;;3.85;;
47760;SDS011;33524;55.434;38.520;2023-12-20T03:26:28;5.90;;;3.97;;
47760;SDS011;33524;55.434;38.520;2023-12-20T03:28:56;6.07;;;4.28;;
47760;SDS011;33524;55.434;38.520;2023-12-20T03:31:24;9.05;;;5.57;;
47760;SDS011;33524;55.434;38.520;2023-12-20T03:33:52;7.65;;;5.72;;
47760;SDS011;33524;55.434;38.520;2023-12-20T03:36:21;9.68;;;5.62;;
47760;SDS011;33524;55.434;38.520;2023-12-20T03:38:49;7.97;;;4.68;;
47760;SDS011;33524;55.434;38.520;2023-12-20T03:41:17;7.30;;;5.10;;
47760;SDS011;33524;55.434;38.520;2023-12-20T03:43:45;7.97;;;5.30;;
47760;SDS011;33524;55.434;38.520;2023-12-20T03:46:13;5.50;;;4.57;;
47760;SDS011;33524;55.434;38.520;2023-12-20T03:48:41;7.37;;;4.78;;
47760;SDS011;33524;55.434;38.520;2023-12-20T03:51:09;6.25;;;4.78;;
47760;SDS011;33524;55.434;38.520;2023-12-20T03:53:37;6.70;;;4.87;;
47760;SDS011;33524;55.434;38.520;2023-12-20T03:56:07;5.22;;;3.78;;
47760;SDS011;33524;55.434;38.520;2023-12-20T03:58:36;8.35;;;4.50;;
47760;SDS011;33524;55.434;38.520;2023-12-20T04:01:08;4.75;;;3.75;;
47760;SDS011;33524;55.434;38.520;2023-12-20T04:03:39;5.35;;;3.60;;
47760;SDS011;33524;55.434;38.520;2023-12-20T04:06:08;7.87;;;3.70;;
47760;SDS011;33524;55.434;38.520;2023-12-20T04:08:36;4.78;;;3.20;;
47760;SDS011;33524;55.434;38.520;2023-12-20T04:11:04;5.22;;;3.30;;
47760;SDS011;33524;55.434;38.520;2023-12-20T04:13:32;4.50;;;3.15;;
47760;SDS011;33524;55.434;38.520;2023-12-20T04:16:00;4.55;;;2.90;;
47760;SDS011;33524;55.434;38.520;2023-12-20T04:18:29;4.00;;;2.62;;
47760;SDS011;33524;55.434;38.520;2023-12-20T04:20:57;5.15;;;2.58;;
47760;SDS011;33524;55.434;38.520;2023-12-20T04:23:24;4.47;;;3.10;;
47760;SDS011;33524;55.434;38.520;2023-12-20T04:25:54;4.28;;;2.40;;
47760;SDS011;33524;55.434;38.520;2023-12-20T04:28:22;3.60;;;2.50;;
47760;SDS011;33524;55.434;38.520;2023-12-20T04:30:50;4.43;;;2.47;;
47760;SDS011;33524;55.434;38.520;2023-12-20T04:33:18;4.15;;;2.37;;
47760;SDS011;33524;55.434;38.520;2023-12-20T04:35:46;2.83;;;1.90;;
47760;SDS011;33524;55.434;38.520;2023-12-20T04:38:14;5.25;;;2.08;;
47760;SDS011;33524;55.434;38.520;2023-12-20T04:40:43;3.28;;;2.00;;
47760;SDS011;33524;55.434;38.520;2023-12-20T04:43:11;2.75;;;2.00;;
47760;SDS011;33524;55.434;38.520;2023-12-20T04:45:39;4.00;;;2.35;;
47760;SDS011;33524;55.434;38.520;2023-12-20T04:48:07;4.60;;;2.70;;
47760;SDS011;33524;55.434;38.520;2023-12-20T04:50:36;4.22;;;2.83;;
47760;SDS011;33524;55.434;38.520;2023-12-20T04:53:04;6.75;;;3.78;;
47760;SDS011;33524;55.434;38.520;2023-12-20T04:55:32;7.95;;;3.85;;
47760;SDS011;33524;55.434;38.520;2023-12-20T04:58:00;7.40;;;4.28;;
47760;SDS011;33524;55.434;38.520;2023-12-20T05:00:29;6.15;;;3.92;;
47760;SDS011;33524;55.434;38.520;2023-12-20T05:02:58;5.65;;;3.10;;
47760;SDS011;33524;55.434;38.520;2023-12-20T05:05:25;4.12;;;3.03;;
47760;SDS011;33524;55.434;38.520;2023-12-20T05:07:53;6.35;;;3.35;;
47760;SDS011;33524;55.434;38.520;2023-12-20T05:10:22;5.70;;;3.15;;
47760;SDS011;33524;55.434;38.520;2023-12-20T05:12:50;6.82;;;3.53;;
47760;SDS011;33524;55.434;38.520;2023-12-20T05:15:21;6.18;;;2.78;;
47760;SDS011;33524;55.434;38.520;2023-12-20T05:17:50;4.28;;;3.05;;
47760;SDS011;33524;55.434;38.520;2023-12-20T05:20:18;3.97;;;2.62;;
47760;SDS011;33524;55.434;38.520;2023-12-20T05:22:46;4.22;;;3.15;;
47760;SDS011;33524;55.434;38.520;2023-12-20T05:25:15;5.68;;;3.33;;
47760;SDS011;33524;55.434;38.520;2023-12-20T05:27:44;3.95;;;2.47;;
47760;SDS011;33524;55.434;38.520;2023-12-20T05:30:13;5.28;;;3.47;;
47760;SDS011;33524;55.434;38.520;2023-12-20T05:32:41;4.37;;;3.20;;
47760;SDS011;33524;55.434;38.520;2023-12-20T05:35:10;4.53;;;3.25;;
47760;SDS011;33524;55.434;38.520;2023-12-20T05:37:38;5.47;;;3.30;;
47760;SDS011;33524;55.434;38.520;2023-12-20T05:40:06;4.93;;;2.92;;
47760;SDS011;33524;55.434;38.520;2023-12-20T05:42:37;5.68;;;2.62;;
47760;SDS011;33524;55.434;38.520;2023-12-20T05:45:05;4.50;;;2.90;;
47760;SDS011;33524;55.434;38.520;2023-12-20T05:47:34;4.85;;;3.20;;
47760;SDS011;33524;55.434;38.520;2023-12-20T05:50:02;4.28;;;2.92;;
47760;SDS011;33524;55.434;38.520;2023-12-20T05:52:31;5.65;;;3.42;;
47760;SDS011;33524;55.434;38.520;2023-12-20T05:55:00;3.60;;;2.78;;
47760;SDS011;33524;55.434;38.520;2023-12-20T05:57:33;4.37;;;2.80;;
47760;SDS011;33524;55.434;38.520;2023-12-20T06:00:02;5.85;;;3.25;;
47760;SDS011;33524;55.434;38.520;2023-12-20T06:02:38;5.65;;;3.60;;
47760;SDS011;33524;55.434;38.520;2023-12-20T06:05:07;5.97;;;3.45;;
47760;SDS011;33524;55.434;38.520;2023-12-20T06:07:36;4.87;;;3.30;;
47760;SDS011;33524;55.434;38.520;2023-12-20T06:10:04;3.87;;;2.97;;
47760;SDS011;33524;55.434;38.520;2023-12-20T06:12:34;4.03;;;2.65;;
47760;SDS011;33524;55.434;38.520;2023-12-20T06:15:03;4.22;;;2.80;;
47760;SDS011;33524;55.434;38.520;2023-12-20T06:17:31;3.80;;;2.97;;
47760;SDS011;33524;55.434;38.520;2023-12-20T06:20:00;3.92;;;2.95;;
47760;SDS011;33524;55.434;38.520;2023-12-20T06:22:29;3.92;;;2.28;;
47760;SDS011;33524;55.434;38.520;2023-12-20T06:24:57;5.03;;;3.72;;
47760;SDS011;33524;55.434;38.520;2023-12-20T06:27:25;5.70;;;3.42;;
47760;SDS011;33524;55.434;38.520;2023-12-20T06:29:53;5.05;;;2.55;;
47760;SDS011;33524;55.434;38.520;2023-12-20T06:32:22;4.55;;;2.40;;
47760;SDS011;33524;55.434;38.520;2023-12-20T06:34:51;4.05;;;2.90;;
47760;SDS011;33524;55.434;38.520;2023-12-20T06:37:19;4.28;;;2.72;;
47760;SDS011;33524;55.434;38.520;2023-12-20T06:39:47;4.45;;;2.95;;
47760;SDS011;33524;55.434;38.520;2023-12-20T06:42:16;4.68;;;2.90;;
47760;SDS011;33524;55.434;38.520;2023-12-20T06:44:44;5.60;;;2.87;;
47760;SDS011;33524;55.434;38.520;2023-12-20T06:47:12;4.07;;;2.85;;
47760;SDS011;33524;55.434;38.520;2023-12-20T06:49:41;5.12;;;3.83;;
47760;SDS011;33524;55.434;38.520;2023-12-20T06:52:09;5.47;;;3.40;;
47760;SDS011;33524;55.434;38.520;2023-12-20T06:54:37;6.20;;;3.45;;
47760;SDS011;33524;55.434;38.520;2023-12-20T06:57:09;5.47;;;2.33;;
47760;SDS011;33524;55.434;38.520;2023-12-20T06:59:38;3.75;;;2.42;;
47760;SDS011;33524;55.434;38.520;2023-12-20T07:02:13;3.17;;;2.40;;
47760;SDS011;33524;55.434;38.520;2023-12-20T07:04:41;5.45;;;3.33;;
47760;SDS011;33524;55.434;38.520;2023-12-20T07:07:10;3.05;;;2.12;;
47760;SDS011;33524;55.434;38.520;2023-12-20T07:09:39;5.95;;;2.95;;
47760;SDS011;33524;55.434;38.520;2023-12-20T07:12:10;3.80;;;2.12;;
47760;SDS011;33524;55.434;38.520;2023-12-20T07:14:38;4.72;;;2.90;;
47760;SDS011;33524;55.434;38.520;2023-12-20T07:17:06;3.37;;;2.30;;
47760;SDS011;33524;55.434;38.520;2023-12-20T07:19:39;4.07;;;2.60;;
47760;SDS011;33524;55.434;38.520;2023-12-20T07:22:07;3.70;;;2.70;;
47760;SDS011;33524;55.434;38.520;2023-12-20T07:24:36;3.87;;;2.17;;
47760;SDS011;33524;55.434;38.520;2023-12-20T07:27:04;2.90;;;2.17;;
47760;SDS011;33524;55.434;38.520;2023-12-20T07:29:32;4.15;;;1.92;;
47760;SDS011;33524;55.434;38.520;2023-12-20T07:32:00;3.83;;;2.17;;
47760;SDS011;33524;55.434;38.520;2023-12-20T07:34:30;2.58;;;1.70;;
47760;SDS011;33524;55.434;38.520;2023-12-20T07:37:15;3.47;;;1.90;;
47760;SDS011;33524;55.434;38.520;2023-12-20T07:39:44;2.00;;;1.45;;
47760;SDS011;33524;55.434;38.520;2023-12-20T07:42:12;2.67;;;1.80;;
47760;SDS011;33524;55.434;38.520;2023-12-20T07:44:40;2.20;;;1.65;;
47760;SDS011;33524;55.434;38.520;2023-12-20T07:47:26;2.05;;;1.55;;
47760;SDS011;33524;55.434;38.520;2023-12-20T07:49:54;2.62;;;1.50;;
47760;SDS011;33524;55.434;38.520;2023-12-20T07:52:22;2.42;;;1.55;;
47760;SDS011;33524;55.434;38.520;2023-12-20T07:54:51;2.33;;;1.92;;
47760;SDS011;33524;55.434;38.520;2023-12-20T07:57:19;3.00;;;1.37;;
47760;SDS011;33524;55.434;38.520;2023-12-20T07:59:47;4.40;;;2.37;;
47760;SDS011;33524;55.434;38.520;2023-12-20T08:02:16;4.97;;;2.75;;
47760;SDS011;33524;55.434;38.520;2023-12-20T08:04:44;4.75;;;2.78;;
47760;SDS011;33524;55.434;38.520;2023-12-20T08:07:22;2.75;;;1.98;;
47760;SDS011;33524;55.434;38.520;2023-12-20T08:09:51;3.47;;;2.12;;
47760;SDS011;33524;55.434;38.520;2023-12-20T08:12:19;2.65;;;1.80;;
47760;SDS011;33524;55.434;38.520;2023-12-20T08:14:47;2.97;;;1.95;;
47760;SDS011;33524;55.434;38.520;2023-12-20T08:17:16;3.92;;;1.85;;
47760;SDS011;33524;55.434;38.520;2023-12-20T08:19:46;2.65;;;1.70;;
47760;SDS011;33524;55.434;38.520;2023-12-20T08:22:14;2.85;;;1.50;;
47760;SDS011;33524;55.434;38.520;2023-12-20T08:24:42;2.25;;;1.58;;
47760;SDS011;33524;55.434;38.520;2023-12-20T08:27:11;5.07;;;2.05;;
47760;SDS011;33524;55.434;38.520;2023-12-20T08:29:39;2.25;;;1.15;;
47760;SDS011;33524;55.434;38.520;2023-12-20T08:32:08;2.65;;;1.80;;
47760;SDS011;33524;55.434;38.520;2023-12-20T08:34:36;2.53;;;1.85;;
47760;SDS011;33524;55.434;38.520;2023-12-20T08:37:05;3.20;;;2.12;;
47760;SDS011;33524;55.434;38.520;2023-12-20T08:39:34;2.85;;;1.90;;
47760;SDS011;33524;55.434;38.520;2023-12-20T08:42:02;4.93;;;3.28;;
47760;SDS011;33524;55.434;38.520;2023-12-20T08:44:30;4.40;;;2.45;;
47760;SDS011;33524;55.434;38.520;2023-12-20T08:46:59;2.35;;;1.67;;
47760;SDS011;33524;55.434;38.520;2023-12-20T08:49:27;3.33;;;2.03;;
47760;SDS011;33524;55.434;38.520;2023-12-20T08:51:55;3.00;;;2.05;;
47760;SDS011;33524;55.434;38.520;2023-12-20T08:54:24;2.92;;;1.95;;
47760;SDS011;33524;55.434;38.520;2023-12-20T08:56:52;3.97;;;2.40;;
47760;SDS011;33524;55.434;38.520;2023-12-20T08:59:21;4.53;;;2.62;;
47760;SDS011;33524;55.434;38.520;2023-12-20T09:01:50;3.25;;;1.85;;
47760;SDS011;33524;55.434;38.520;2023-12-20T09:06:51;5.22;;;2.12;;
47760;SDS011;33524;55.434;38.520;2023-12-20T09:09:23;4.03;;;2.12;;
47760;SDS011;33524;55.434;38.520;2023-12-20T09:11:51;3.30;;;2.10;;
47760;SDS011;33524;55.434;38.520;2023-12-20T09:14:19;4.82;;;2.50;;
47760;SDS011;33524;55.434;38.520;2023-12-20T09:16:48;4.72;;;2.40;;
47760;SDS011;33524;55.434;38.520;2023-12-20T09:19:18;5.12;;;3.05;;
47760;SDS011;33524;55.434;38.520;2023-12-20T09:21:47;4.75;;;2.35;;
47760;SDS011;33524;55.434;38.520;2023-12-20T09:24:15;2.72;;;1.92;;
47760;SDS011;33524;55.434;38.520;2023-12-20T09:26:43;4.45;;;2.37;;
47760;SDS011;33524;55.434;38.520;2023-12-20T09:29:11;4.12;;;2.45;;
47760;SDS011;33524;55.434;38.520;2023-12-20T09:31:43;4.28;;;2.90;;
47760;SDS011;33524;55.434;38.520;2023-12-20T09:34:14;4.43;;;2.65;;
47760;SDS011;33524;55.434;38.520;2023-12-20T09:36:44;4.10;;;2.75;;
47760;SDS011;33524;55.434;38.520;2023-12-20T09:39:15;3.85;;;2.53;;
47760;SDS011;33524;55.434;38.520;2023-12-20T09:44:30;3.78;;;2.78;;
47760;SDS011;33524;55.434;38.520;2023-12-20T09:47:01;5.18;;;3.15;;
47760;SDS011;33524;55.434;38.520;2023-12-20T09:49:33;6.32;;;3.55;;
47760;SDS011;33524;55.434;38.520;2023-12-20T09:52:05;5.18;;;3.00;;
47760;SDS011;33524;55.434;38.520;2023-12-20T09:54:36;3.65;;;2.83;;
47760;SDS011;33524;55.434;38.520;2023-12-20T09:57:04;5.47;;;3.40;;
47760;SDS011;33524;55.434;38.520;2023-12-20T09:59:33;4.15;;;2.53;;
47760;SDS011;33524;55.434;38.520;2023-12-20T10:02:01;5.30;;;2.80;;
47760;SDS011;33524;55.434;38.520;2023-12-20T10:04:32;4.55;;;3.00;;
47760;SDS011;33524;55.434;38.520;2023-12-20T10:07:07;4.05;;;2.55;;
47760;SDS011;33524;55.434;38.520;2023-12-20T10:09:36;3.70;;;2.25;;
47760;SDS011;33524;55.434;38.520;2023-12-20T10:12:05;2.90;;;2.20;;
47760;SDS011;33524;55.434;38.520;2023-12-20T10:14:34;3.65;;;2.62;;
47760;SDS011;33524;55.434;38.520;2023-12-20T10:17:03;5.30;;;2.65;;
47760;SDS011;33524;55.434;38.520;2023-12-20T10:19:32;4.78;;;3.33;;
47760;SDS011;33524;55.434;38.520;2023-12-20T10:22:00;4.15;;;3.00;;
47760;SDS011;33524;55.434;38.520;2023-12-20T10:24:32;5.05;;;2.87;;
47760;SDS011;33524;55.434;38.520;2023-12-20T10:27:08;4.28;;;2.78;;
47760;SDS011;33524;55.434;38.520;2023-12-20T10:29:37;5.62;;;3.55;;
47760;SDS011;33524;55.434;38.520;2023-12-20T10:32:22;3.22;;;2.12;;
47760;SDS011;33524;55.434;38.520;2023-12-20T10:34:54;4.22;;;2.80;;
47760;SDS011;33524;55.434;38.520;2023-12-20T10:37:23;3.83;;;2.12;;
47760;SDS011;33524;55.434;38.520;2023-12-20T10:39:54;4.55;;;2.67;;
47760;SDS011;33524;55.434;38.520;2023-12-20T10:42:28;3.37;;;2.40;;
47760;SDS011;33524;55.434;38.520;2023-12-20T10:44:59;5.20;;;2.87;;
47760;SDS011;33524;55.434;38.520;2023-12-20T10:47:31;2.97;;;2.25;;
47760;SDS011;33524;55.434;38.520;2023-12-20T10:50:02;4.65;;;2.55;;
47760;SDS011;33524;55.434;38.520;2023-12-20T10:52:33;4.20;;;2.72;;
47760;SDS011;33524;55.434;38.520;2023-12-20T10:55:04;3.55;;;2.37;;
47760;SDS011;33524;55.434;38.520;2023-12-20T10:57:34;3.55;;;2.53;;
47760;SDS011;33524;55.434;38.520;2023-12-20T11:00:04;4.40;;;2.58;;
47760;SDS011;33524;55.434;38.520;2023-12-20T11:02:39;5.43;;;1.95;;
47760;SDS011;33524;55.434;38.520;2023-12-20T11:08:22;3.35;;;2.03;;
47760;SDS011;33524;55.434;38.520;2023-12-20T11:14:11;5.22;;;2.40;;
47760;SDS011;33524;55.434;38.520;2023-12-20T11:16:50;3.25;;;2.17;;
47760;SDS011;33524;55.434;38.520;2023-12-20T11:19:35;3.17;;;1.85;;
47760;SDS011;33524;55.434;38.520;2023-12-20T11:22:04;3.78;;;2.50;;
47760;SDS011;33524;55.434;38.520;2023-12-20T11:24:33;3.05;;;2.22;;
47760;SDS011;33524;55.434;38.520;2023-12-20T11:27:07;3.50;;;2.60;;
47760;SDS011;33524;55.434;38.520;2023-12-20T11:29:36;2.78;;;2.10;;
47760;SDS011;33524;55.434;38.520;2023-12-20T11:34:58;4.12;;;2.65;;
47760;SDS011;33524;55.434;38.520;2023-12-20T11:37:45;3.15;;;2.35;;
47760;SDS011;33524;55.434;38.520;2023-12-20T11:40:17;3.65;;;2.50;;
47760;SDS011;33524;55.434;38.520;2023-12-20T11:42:49;3.80;;;2.58;;
47760;SDS011;33524;55.434;38.520;2023-12-20T11:45:19;4.00;;;2.47;;
47760;SDS011;33524;55.434;38.520;2023-12-20T11:47:50;3.17;;;1.85;;
47760;SDS011;33524;55.434;38.520;2023-12-20T11:50:21;3.05;;;2.28;;
47760;SDS011;33524;55.434;38.520;2023-12-20T11:52:51;4.03;;;2.53;;
47760;SDS011;33524;55.434;38.520;2023-12-20T11:55:22;4.65;;;3.20;;
47760;SDS011;33524;55.434;38.520;2023-12-20T11:57:54;3.80;;;2.17;;
47760;SDS011;33524;55.434;38.520;2023-12-20T12:00:26;4.97;;;3.28;;
47760;SDS011;33524;55.434;38.520;2023-12-20T12:02:56;4.68;;;2.72;;
47760;SDS011;33524;55.434;38.520;2023-12-20T12:05:27;5.25;;;3.35;;
47760;SDS011;33524;55.434;38.520;2023-12-20T12:07:56;7.65;;;3.15;;
47760;SDS011;33524;55.434;38.520;2023-12-20T12:10:24;4.87;;;2.95;;
47760;SDS011;33524;55.434;38.520;2023-12-20T12:12:53;4.60;;;2.60;;
47760;SDS011;33524;55.434;38.520;2023-12-20T12:15:22;4.45;;;2.90;;
47760;SDS011;33524;55.434;38.520;2023-12-20T12:17:53;4.18;;;2.45;;
47760;SDS011;33524;55.434;38.520;2023-12-20T12:20:23;3.78;;;2.45;;
47760;SDS011;33524;55.434;38.520;2023-12-20T12:23:01;3.20;;;2.30;;
47760;SDS011;33524;55.434;38.520;2023-12-20T12:25:32;3.33;;;2.45;;
47760;SDS011;33524;55.434;38.520;2023-12-20T12:28:07;3.97;;;2.45;;
47760;SDS011;33524;55.434;38.520;2023-12-20T12:30:36;4.15;;;2.55;;
47760;SDS011;33524;55.434;38.520;2023-12-20T12:33:12;4.50;;;2.42;;
47760;SDS011;33524;55.434;38.520;2023-12-20T12:35:41;4.47;;;2.42;;
47760;SDS011;33524;55.434;38.520;2023-12-20T12:38:09;3.95;;;2.42;;
47760;SDS011;33524;55.434;38.520;2023-12-20T12:40:39;4.47;;;2.55;;
47760;SDS011;33524;55.434;38.520;2023-12-20T12:43:11;3.35;;;2.05;;
47760;SDS011;33524;55.434;38.520;2023-12-20T12:45:40;2.40;;;1.80;;
47760;SDS011;33524;55.434;38.520;2023-12-20T12:48:08;4.47;;;2.00;;
47760;SDS011;33524;55.434;38.520;2023-12-20T12:50:36;3.33;;;2.30;;
47760;SDS011;33524;55.434;38.520;2023-12-20T12:53:04;3.58;;;2.28;;
47760;SDS011;33524;55.434;38.520;2023-12-20T12:55:34;3.17;;;2.30;;
47760;SDS011;33524;55.434;38.520;2023-12-20T12:58:03;2.87;;;2.30;;
47760;SDS011;33524;55.434;38.520;2023-12-20T13:00:32;3.22;;;1.90;;
47760;SDS011;33524;55.434;38.520;2023-12-20T13:03:00;3.85;;;2.30;;
47760;SDS011;33524;55.434;38.520;2023-12-20T13:05:30;3.05;;;2.15;;
47760;SDS011;33524;55.434;38.520;2023-12-20T13:08:05;4.15;;;2.33;;
47760;SDS011;33524;55.434;38.520;2023-12-20T13:10:34;4.95;;;2.75;;
47760;SDS011;33524;55.434;38.520;2023-12-20T13:13:05;3.15;;;2.20;;
47760;SDS011;33524;55.434;38.520;2023-12-20T13:15:34;3.22;;;2.25;;
47760;SDS011;33524;55.434;38.520;2023-12-20T13:18:02;3.25;;;2.00;;
47760;SDS011;33524;55.434;38.520;2023-12-20T13:20:32;3.62;;;2.20;;
47760;SDS011;33524;55.434;38.520;2023-12-20T13:23:01;4.43;;;2.62;;
47760;SDS011;33524;55.434;38.520;2023-12-20T13:25:31;3.22;;;2.33;;
47760;SDS011;33524;55.434;38.520;2023-12-20T13:27:59;3.10;;;2.30;;
47760;SDS011;33524;55.434;38.520;2023-12-20T13:30:27;5.68;;;2.78;;
47760;SDS011;33524;55.434;38.520;2023-12-20T13:32:56;5.87;;;3.00;;
47760;SDS011;33524;55.434;38.520;2023-12-20T13:35:24;7.35;;;3.03;;
47760;SDS011;33524;55.434;38.520;2023-12-20T13:37:52;5.47;;;2.92;;
47760;SDS011;33524;55.434;38.520;2023-12-20T13:40:21;6.45;;;3.20;;
47760;SDS011;33524;55.434;38.520;2023-12-20T13:42:49;4.65;;;2.72;;
47760;SDS011;33524;55.434;38.520;2023-12-20T13:45:18;4.25;;;2.65;;
47760;SDS011;33524;55.434;38.520;2023-12-20T13:47:46;5.37;;;2.85;;
47760;SDS011;33524;55.434;38.520;2023-12-20T13:50:14;4.47;;;3.00;;
47760;SDS011;33524;55.434;38.520;2023-12-20T13:52:42;7.20;;;3.28;;
47760;SDS011;33524;55.434;38.520;2023-12-20T13:55:11;6.37;;;4.03;;
47760;SDS011;33524;55.434;38.520;2023-12-20T13:57:42;7.35;;;3.85;;
47760;SDS011;33524;55.434;38.520;2023-12-20T14:00:23;8.60;;;4.75;;
47760;SDS011;33524;55.434;38.520;2023-12-20T14:02:51;9.10;;;4.65;;
47760;SDS011;33524;55.434;38.520;2023-12-20T14:05:19;8.27;;;4.35;;
47760;SDS011;33524;55.434;38.520;2023-12-20T14:07:54;5.25;;;3.47;;
47760;SDS011;33524;55.434;38.520;2023-12-20T14:10:25;3.78;;;2.47;;
47760;SDS011;33524;55.434;38.520;2023-12-20T14:12:54;4.60;;;2.80;;
47760;SDS011;33524;55.434;38.520;2023-12-20T14:15:23;3.12;;;2.12;;
47760;SDS011;33524;55.434;38.520;2023-12-20T14:17:53;4.10;;;2.42;;
47760;SDS011;33524;55.434;38.520;2023-12-20T14:20:25;3.53;;;2.28;;
47760;SDS011;33524;55.434;38.520;2023-12-20T14:22:54;4.25;;;2.42;;
47760;SDS011;33524;55.434;38.520;2023-12-20T14:25:22;7.12;;;3.37;;
47760;SDS011;33524;55.434;38.520;2023-12-20T14:27:50;11.07;;;5.43;;
47760;SDS011;33524;55.434;38.520;2023-12-20T14:30:22;5.53;;;3.65;;
47760;SDS011;33524;55.434;38.520;2023-12-20T14:32:50;5.72;;;3.17;;
47760;SDS011;33524;55.434;38.520;2023-12-20T14:35:18;4.05;;;3.05;;
47760;SDS011;33524;55.434;38.520;2023-12-20T14:37:47;4.00;;;2.62;;
47760;SDS011;33524;55.434;38.520;2023-12-20T14:40:16;4.90;;;3.25;;
47760;SDS011;33524;55.434;38.520;2023-12-20T14:42:48;4.80;;;2.33;;
47760;SDS011;33524;55.434;38.520;2023-12-20T14:45:17;6.27;;;3.50;;
47760;SDS011;33524;55.434;38.520;2023-12-20T14:47:45;7.45;;;3.15;;
47760;SDS011;33524;55.434;38.520;2023-12-20T14:50:16;4.15;;;2.80;;
47760;SDS011;33524;55.434;38.520;2023-12-20T14:52:53;4.65;;;2.12;;
47760;SDS011;33524;55.434;38.520;2023-12-20T14:55:22;3.15;;;2.08;;
47760;SDS011;33524;55.434;38.520;2023-12-20T14:57:51;3.47;;;2.33;;
47760;SDS011;33524;55.434;38.520;2023-12-20T15:00:19;3.25;;;2.12;;